sensor_id;sensor_type;location;lat;lon;timestamp;P1;durP1;ratioP1;P2;durP2;ratioP2
3415;SDS011;1721;51.238;9.562;2024-01-16T00:01:20;8.90;;;0.80;;
3415;SDS011;1721;51.238;9.562;2024-01-16T00:03:45;1.40;;;0.60;;
3415;SDS011;1721;51.238;9.562;2024-01-16T00:06:11;1.83;;;0.80;;
3415;SDS011;1721;51.238;9.562;2024-01-16T00:08:37;2.40;;;1.50;;
3415;SDS011;1721;51.238;9.562;2024-01-16T00:11:02;1.63;;;0.70;;
3415;SDS011;1721;51.238;9.562;2024-01-16T00:13:28;1.23;;;0.50;;
3415;SDS011;1721;51.238;9.562;2024-01-16T00:15:54;4.33;;;0.90;;
3415;SDS011;1721;51.238;9.562;2024-01-16T00:18:21;1.45;;;0.85;;
3415;SDS011;1721;51.238;9.562;2024-01-16T00:20:47;1.70;;;0.80;;
3415;SDS011;1721;51.238;9.562;2024-01-16T00:23:12;1.40;;;0.70;;
3415;SDS011;1721;51.238;9.562;2024-01-16T00:25:38;5.37;;;1.10;;
3415;SDS011;1721;51.238;9.562;2024-01-16T00:28:04;1.67;;;0.63;;
3415;SDS011;1721;51.238;9.562;2024-01-16T00:30:29;2.03;;;0.83;;
3415;SDS011;1721;51.238;9.562;2024-01-16T00:32:55;5.30;;;0.70;;
3415;SDS011;1721;51.238;9.562;2024-01-16T00:35:21;1.60;;;0.70;;
3415;SDS011;1721;51.238;9.562;2024-01-16T00:37:46;2.77;;;1.20;;
3415;SDS011;1721;51.238;9.562;2024-01-16T00:40:12;1.70;;;0.90;;
3415;SDS011;1721;51.238;9.562;2024-01-16T00:42:38;2.28;;;1.13;;
3415;SDS011;1721;51.238;9.562;2024-01-16T00:45:04;5.73;;;1.57;;
3415;SDS011;1721;51.238;9.562;2024-01-16T00:47:30;1.57;;;0.60;;
3415;SDS011;1721;51.238;9.562;2024-01-16T00:49:55;1.63;;;0.73;;
3415;SDS011;1721;51.238;9.562;2024-01-16T00:52:21;1.50;;;0.77;;
3415;SDS011;1721;51.238;9.562;2024-01-16T00:54:46;1.97;;;0.90;;
3415;SDS011;1721;51.238;9.562;2024-01-16T00:57:12;1.55;;;0.90;;
3415;SDS011;1721;51.238;9.562;2024-01-16T00:59:40;8.63;;;1.00;;
3415;SDS011;1721;51.238;9.562;2024-01-16T01:02:05;2.00;;;1.00;;
3415;SDS011;1721;51.238;9.562;2024-01-16T01:04:32;1.90;;;1.03;;
3415;SDS011;1721;51.238;9.562;2024-01-16T01:06:58;2.90;;;0.90;;
3415;SDS011;1721;51.238;9.562;2024-01-16T01:09:23;2.47;;;1.00;;
3415;SDS011;1721;51.238;9.562;2024-01-16T01:11:49;1.93;;;1.00;;
3415;SDS011;1721;51.238;9.562;2024-01-16T01:14:15;4.93;;;1.13;;
3415;SDS011;1721;51.238;9.562;2024-01-16T01:16:40;4.63;;;1.47;;
3415;SDS011;1721;51.238;9.562;2024-01-16T01:19:06;2.57;;;0.70;;
3415;SDS011;1721;51.238;9.562;2024-01-16T01:21:32;3.03;;;1.23;;
3415;SDS011;1721;51.238;9.562;2024-01-16T01:23:57;6.03;;;1.60;;
3415;SDS011;1721;51.238;9.562;2024-01-16T01:26:23;2.50;;;1.00;;
3415;SDS011;1721;51.238;9.562;2024-01-16T01:28:48;1.13;;;0.57;;
3415;SDS011;1721;51.238;9.562;2024-01-16T01:31:14;5.73;;;0.90;;
3415;SDS011;1721;51.238;9.562;2024-01-16T01:33:39;2.13;;;1.00;;
3415;SDS011;1721;51.238;9.562;2024-01-16T01:36:05;1.87;;;0.90;;
3415;SDS011;1721;51.238;9.562;2024-01-16T01:38:31;2.43;;;0.97;;
3415;SDS011;1721;51.238;9.562;2024-01-16T01:40:57;2.33;;;1.20;;
3415;SDS011;1721;51.238;9.562;2024-01-16T01:43:23;2.50;;;0.90;;
3415;SDS011;1721;51.238;9.562;2024-01-16T01:46:09;4.63;;;1.40;;
3415;SDS011;1721;51.238;9.562;2024-01-16T01:48:45;1.73;;;0.85;;
3415;SDS011;1721;51.238;9.562;2024-01-16T01:51:13;3.53;;;1.58;;
3415;SDS011;1721;51.238;9.562;2024-01-16T01:53:41;6.85;;;2.47;;
3415;SDS011;1721;51.238;9.562;2024-01-16T01:56:08;1.52;;;1.08;;
3415;SDS011;1721;51.238;9.562;2024-01-16T01:58:36;5.85;;;1.20;;
3415;SDS011;1721;51.238;9.562;2024-01-16T02:01:03;1.58;;;0.60;;
3415;SDS011;1721;51.238;9.562;2024-01-16T02:03:31;1.80;;;1.10;;
3415;SDS011;1721;51.238;9.562;2024-01-16T02:06:00;2.70;;;1.27;;
3415;SDS011;1721;51.238;9.562;2024-01-16T02:08:26;1.30;;;0.70;;
3415;SDS011;1721;51.238;9.562;2024-01-16T02:10:51;1.50;;;0.73;;
3415;SDS011;1721;51.238;9.562;2024-01-16T02:13:18;1.70;;;0.90;;
3415;SDS011;1721;51.238;9.562;2024-01-16T02:15:48;1.80;;;0.80;;
3415;SDS011;1721;51.238;9.562;2024-01-16T02:18:14;3.58;;;1.23;;
3415;SDS011;1721;51.238;9.562;2024-01-16T02:20:39;1.60;;;0.97;;
3415;SDS011;1721;51.238;9.562;2024-01-16T02:23:05;2.43;;;0.97;;
3415;SDS011;1721;51.238;9.562;2024-01-16T02:25:35;2.75;;;1.40;;
3415;SDS011;1721;51.238;9.562;2024-01-16T02:28:01;2.87;;;0.87;;
3415;SDS011;1721;51.238;9.562;2024-01-16T02:30:27;4.05;;;0.85;;
3415;SDS011;1721;51.238;9.562;2024-01-16T02:32:52;1.90;;;0.70;;
3415;SDS011;1721;51.238;9.562;2024-01-16T02:35:18;1.70;;;0.90;;
3415;SDS011;1721;51.238;9.562;2024-01-16T02:37:44;1.40;;;0.63;;
3415;SDS011;1721;51.238;9.562;2024-01-16T02:40:10;1.97;;;0.90;;
3415;SDS011;1721;51.238;9.562;2024-01-16T02:42:36;2.28;;;1.02;;
3415;SDS011;1721;51.238;9.562;2024-01-16T02:45:02;2.80;;;1.33;;
3415;SDS011;1721;51.238;9.562;2024-01-16T02:47:29;1.65;;;1.02;;
3415;SDS011;1721;51.238;9.562;2024-01-16T02:49:55;1.60;;;0.80;;
3415;SDS011;1721;51.238;9.562;2024-01-16T02:52:20;2.70;;;0.93;;
3415;SDS011;1721;51.238;9.562;2024-01-16T02:54:46;3.03;;;1.00;;
3415;SDS011;1721;51.238;9.562;2024-01-16T02:57:11;1.27;;;0.83;;
3415;SDS011;1721;51.238;9.562;2024-01-16T02:59:37;1.50;;;0.60;;
3415;SDS011;1721;51.238;9.562;2024-01-16T03:02:03;2.97;;;0.80;;
3415;SDS011;1721;51.238;9.562;2024-01-16T03:04:29;2.03;;;0.90;;
3415;SDS011;1721;51.238;9.562;2024-01-16T03:06:54;4.67;;;1.43;;
3415;SDS011;1721;51.238;9.562;2024-01-16T03:09:20;2.10;;;0.97;;
3415;SDS011;1721;51.238;9.562;2024-01-16T03:11:46;2.70;;;0.93;;
3415;SDS011;1721;51.238;9.562;2024-01-16T03:14:11;3.73;;;1.03;;
3415;SDS011;1721;51.238;9.562;2024-01-16T03:16:38;1.95;;;0.93;;
3415;SDS011;1721;51.238;9.562;2024-01-16T03:19:04;4.53;;;1.48;;
3415;SDS011;1721;51.238;9.562;2024-01-16T03:21:30;1.90;;;0.87;;
3415;SDS011;1721;51.238;9.562;2024-01-16T03:23:56;2.37;;;0.90;;
3415;SDS011;1721;51.238;9.562;2024-01-16T03:26:21;2.53;;;1.10;;
3415;SDS011;1721;51.238;9.562;2024-01-16T03:28:47;2.93;;;0.77;;
3415;SDS011;1721;51.238;9.562;2024-01-16T03:31:13;3.93;;;1.20;;
3415;SDS011;1721;51.238;9.562;2024-01-16T03:33:41;7.95;;;0.93;;
3415;SDS011;1721;51.238;9.562;2024-01-16T03:36:08;1.67;;;0.70;;
3415;SDS011;1721;51.238;9.562;2024-01-16T03:38:35;1.20;;;0.60;;
3415;SDS011;1721;51.238;9.562;2024-01-16T03:41:02;6.72;;;1.48;;
3415;SDS011;1721;51.238;9.562;2024-01-16T03:43:28;2.00;;;0.90;;
3415;SDS011;1721;51.238;9.562;2024-01-16T03:45:56;3.70;;;0.90;;
3415;SDS011;1721;51.238;9.562;2024-01-16T03:48:22;3.53;;;1.10;;
3415;SDS011;1721;51.238;9.562;2024-01-16T03:50:48;2.17;;;0.80;;
3415;SDS011;1721;51.238;9.562;2024-01-16T03:53:14;3.20;;;1.20;;
3415;SDS011;1721;51.238;9.562;2024-01-16T03:55:39;2.00;;;1.40;;
3415;SDS011;1721;51.238;9.562;2024-01-16T03:58:05;4.00;;;1.00;;
3415;SDS011;1721;51.238;9.562;2024-01-16T04:00:31;5.13;;;1.38;;
3415;SDS011;1721;51.238;9.562;2024-01-16T04:02:57;1.95;;;0.85;;
3415;SDS011;1721;51.238;9.562;2024-01-16T04:05:22;1.90;;;1.17;;
3415;SDS011;1721;51.238;9.562;2024-01-16T04:07:48;2.53;;;0.87;;
3415;SDS011;1721;51.238;9.562;2024-01-16T04:10:13;2.33;;;1.03;;
3415;SDS011;1721;51.238;9.562;2024-01-16T04:12:39;7.33;;;1.30;;
3415;SDS011;1721;51.238;9.562;2024-01-16T04:15:05;1.40;;;0.60;;
3415;SDS011;1721;51.238;9.562;2024-01-16T04:17:31;2.22;;;1.10;;
3415;SDS011;1721;51.238;9.562;2024-01-16T04:19:56;2.03;;;0.93;;
3415;SDS011;1721;51.238;9.562;2024-01-16T04:22:22;2.50;;;1.30;;
3415;SDS011;1721;51.238;9.562;2024-01-16T04:24:47;3.43;;;0.80;;
3415;SDS011;1721;51.238;9.562;2024-01-16T04:27:13;2.77;;;0.90;;
3415;SDS011;1721;51.238;9.562;2024-01-16T04:29:38;4.63;;;0.93;;
3415;SDS011;1721;51.238;9.562;2024-01-16T04:32:04;4.10;;;0.90;;
3415;SDS011;1721;51.238;9.562;2024-01-16T04:34:30;1.87;;;0.73;;
3415;SDS011;1721;51.238;9.562;2024-01-16T04:36:55;2.07;;;0.63;;
3415;SDS011;1721;51.238;9.562;2024-01-16T04:39:21;2.23;;;1.10;;
3415;SDS011;1721;51.238;9.562;2024-01-16T04:41:49;2.00;;;0.80;;
3415;SDS011;1721;51.238;9.562;2024-01-16T04:44:15;1.70;;;0.70;;
3415;SDS011;1721;51.238;9.562;2024-01-16T04:46:40;1.40;;;0.60;;
3415;SDS011;1721;51.238;9.562;2024-01-16T04:49:06;2.40;;;0.90;;
3415;SDS011;1721;51.238;9.562;2024-01-16T04:51:31;1.53;;;0.90;;
3415;SDS011;1721;51.238;9.562;2024-01-16T04:53:57;2.43;;;0.83;;
3415;SDS011;1721;51.238;9.562;2024-01-16T04:56:23;2.47;;;0.80;;
3415;SDS011;1721;51.238;9.562;2024-01-16T04:58:48;5.63;;;1.57;;
3415;SDS011;1721;51.238;9.562;2024-01-16T05:01:14;5.60;;;1.23;;
3415;SDS011;1721;51.238;9.562;2024-01-16T05:03:39;1.83;;;0.87;;
3415;SDS011;1721;51.238;9.562;2024-01-16T05:06:05;2.10;;;1.03;;
3415;SDS011;1721;51.238;9.562;2024-01-16T05:08:38;2.13;;;1.00;;
3415;SDS011;1721;51.238;9.562;2024-01-16T05:11:04;6.93;;;0.60;;
3415;SDS011;1721;51.238;9.562;2024-01-16T05:13:29;1.83;;;1.00;;
3415;SDS011;1721;51.238;9.562;2024-01-16T05:15:55;3.00;;;1.00;;
3415;SDS011;1721;51.238;9.562;2024-01-16T05:18:21;2.80;;;0.67;;
3415;SDS011;1721;51.238;9.562;2024-01-16T05:20:46;4.90;;;1.23;;
3415;SDS011;1721;51.238;9.562;2024-01-16T05:23:12;4.00;;;1.40;;
3415;SDS011;1721;51.238;9.562;2024-01-16T05:25:37;1.43;;;0.73;;
3415;SDS011;1721;51.238;9.562;2024-01-16T05:28:03;2.00;;;0.90;;
3415;SDS011;1721;51.238;9.562;2024-01-16T05:30:29;1.20;;;0.60;;
3415;SDS011;1721;51.238;9.562;2024-01-16T05:32:54;1.87;;;1.03;;
3415;SDS011;1721;51.238;9.562;2024-01-16T05:35:20;1.63;;;0.80;;
3415;SDS011;1721;51.238;9.562;2024-01-16T05:37:46;1.53;;;0.70;;
3415;SDS011;1721;51.238;9.562;2024-01-16T05:40:11;3.20;;;1.10;;
3415;SDS011;1721;51.238;9.562;2024-01-16T05:42:37;1.40;;;0.90;;
3415;SDS011;1721;51.238;9.562;2024-01-16T05:45:03;3.97;;;1.63;;
3415;SDS011;1721;51.238;9.562;2024-01-16T05:47:29;2.20;;;1.07;;
3415;SDS011;1721;51.238;9.562;2024-01-16T05:49:55;1.50;;;0.80;;
3415;SDS011;1721;51.238;9.562;2024-01-16T05:52:21;6.67;;;1.23;;
3415;SDS011;1721;51.238;9.562;2024-01-16T05:54:47;9.27;;;1.15;;
3415;SDS011;1721;51.238;9.562;2024-01-16T05:57:13;5.00;;;1.17;;
3415;SDS011;1721;51.238;9.562;2024-01-16T05:59:38;2.60;;;1.10;;
3415;SDS011;1721;51.238;9.562;2024-01-16T06:02:04;8.32;;;0.85;;
3415;SDS011;1721;51.238;9.562;2024-01-16T06:04:30;2.80;;;1.63;;
3415;SDS011;1721;51.238;9.562;2024-01-16T06:06:56;2.07;;;0.80;;
3415;SDS011;1721;51.238;9.562;2024-01-16T06:09:21;3.60;;;1.80;;
3415;SDS011;1721;51.238;9.562;2024-01-16T06:11:47;1.90;;;0.97;;
3415;SDS011;1721;51.238;9.562;2024-01-16T06:14:13;11.90;;;1.93;;
3415;SDS011;1721;51.238;9.562;2024-01-16T06:16:40;3.63;;;1.50;;
3415;SDS011;1721;51.238;9.562;2024-01-16T06:19:05;6.93;;;1.03;;
3415;SDS011;1721;51.238;9.562;2024-01-16T06:21:33;2.78;;;1.17;;
3415;SDS011;1721;51.238;9.562;2024-01-16T06:23:58;3.00;;;1.57;;
3415;SDS011;1721;51.238;9.562;2024-01-16T06:26:24;5.33;;;1.20;;
3415;SDS011;1721;51.238;9.562;2024-01-16T06:28:49;4.57;;;2.10;;
3415;SDS011;1721;51.238;9.562;2024-01-16T06:31:16;6.37;;;1.10;;
3415;SDS011;1721;51.238;9.562;2024-01-16T06:33:41;2.85;;;1.25;;
3415;SDS011;1721;51.238;9.562;2024-01-16T06:36:07;2.60;;;0.97;;
3415;SDS011;1721;51.238;9.562;2024-01-16T06:38:32;1.77;;;0.70;;
3415;SDS011;1721;51.238;9.562;2024-01-16T06:40:58;4.43;;;1.50;;
3415;SDS011;1721;51.238;9.562;2024-01-16T06:43:24;1.50;;;0.70;;
3415;SDS011;1721;51.238;9.562;2024-01-16T06:45:49;4.17;;;1.30;;
3415;SDS011;1721;51.238;9.562;2024-01-16T06:48:15;2.27;;;1.00;;
3415;SDS011;1721;51.238;9.562;2024-01-16T06:50:41;2.57;;;1.43;;
3415;SDS011;1721;51.238;9.562;2024-01-16T06:53:06;3.40;;;1.00;;
3415;SDS011;1721;51.238;9.562;2024-01-16T06:55:32;1.43;;;0.73;;
3415;SDS011;1721;51.238;9.562;2024-01-16T06:57:58;4.00;;;1.60;;
3415;SDS011;1721;51.238;9.562;2024-01-16T07:00:23;2.73;;;0.63;;
3415;SDS011;1721;51.238;9.562;2024-01-16T07:02:51;4.07;;;1.80;;
3415;SDS011;1721;51.238;9.562;2024-01-16T07:05:17;2.28;;;0.90;;
3415;SDS011;1721;51.238;9.562;2024-01-16T07:07:43;2.80;;;0.87;;
3415;SDS011;1721;51.238;9.562;2024-01-16T07:10:08;9.30;;;1.13;;
3415;SDS011;1721;51.238;9.562;2024-01-16T07:12:38;2.95;;;1.55;;
3415;SDS011;1721;51.238;9.562;2024-01-16T07:15:05;2.15;;;0.80;;
3415;SDS011;1721;51.238;9.562;2024-01-16T07:17:31;1.83;;;0.75;;
3415;SDS011;1721;51.238;9.562;2024-01-16T07:19:56;4.20;;;1.57;;
3415;SDS011;1721;51.238;9.562;2024-01-16T07:22:23;4.55;;;1.67;;
3415;SDS011;1721;51.238;9.562;2024-01-16T07:24:49;2.90;;;1.60;;
3415;SDS011;1721;51.238;9.562;2024-01-16T07:27:14;3.33;;;0.80;;
3415;SDS011;1721;51.238;9.562;2024-01-16T07:29:40;2.00;;;0.90;;
3415;SDS011;1721;51.238;9.562;2024-01-16T07:32:06;2.20;;;0.70;;
3415;SDS011;1721;51.238;9.562;2024-01-16T07:34:32;3.17;;;1.23;;
3415;SDS011;1721;51.238;9.562;2024-01-16T07:36:58;4.50;;;1.00;;
3415;SDS011;1721;51.238;9.562;2024-01-16T07:39:23;17.33;;;0.90;;
3415;SDS011;1721;51.238;9.562;2024-01-16T07:41:49;5.67;;;2.00;;
3415;SDS011;1721;51.238;9.562;2024-01-16T07:44:14;7.47;;;2.23;;
3415;SDS011;1721;51.238;9.562;2024-01-16T07:46:40;4.47;;;1.10;;
3415;SDS011;1721;51.238;9.562;2024-01-16T07:49:05;2.20;;;0.90;;
3415;SDS011;1721;51.238;9.562;2024-01-16T07:51:31;2.70;;;0.80;;
3415;SDS011;1721;51.238;9.562;2024-01-16T07:54:06;3.10;;;1.10;;
3415;SDS011;1721;51.238;9.562;2024-01-16T07:56:33;2.00;;;1.15;;
3415;SDS011;1721;51.238;9.562;2024-01-16T07:58:59;4.88;;;1.30;;
3415;SDS011;1721;51.238;9.562;2024-01-16T08:01:25;8.77;;;1.80;;
3415;SDS011;1721;51.238;9.562;2024-01-16T08:03:50;2.53;;;1.40;;
3415;SDS011;1721;51.238;9.562;2024-01-16T08:06:16;2.13;;;1.00;;
3415;SDS011;1721;51.238;9.562;2024-01-16T08:08:41;2.03;;;1.40;;
3415;SDS011;1721;51.238;9.562;2024-01-16T08:11:07;7.83;;;2.00;;
3415;SDS011;1721;51.238;9.562;2024-01-16T08:13:33;3.50;;;1.17;;
3415;SDS011;1721;51.238;9.562;2024-01-16T08:15:58;5.50;;;2.30;;
3415;SDS011;1721;51.238;9.562;2024-01-16T08:18:24;2.70;;;1.47;;
3415;SDS011;1721;51.238;9.562;2024-01-16T08:20:50;3.63;;;1.77;;
3415;SDS011;1721;51.238;9.562;2024-01-16T08:23:15;4.03;;;2.07;;
3415;SDS011;1721;51.238;9.562;2024-01-16T08:25:41;6.27;;;2.30;;
3415;SDS011;1721;51.238;9.562;2024-01-16T08:28:06;4.73;;;1.67;;
3415;SDS011;1721;51.238;9.562;2024-01-16T08:30:32;22.07;;;3.17;;
3415;SDS011;1721;51.238;9.562;2024-01-16T08:32:58;5.27;;;2.67;;
3415;SDS011;1721;51.238;9.562;2024-01-16T08:35:23;9.83;;;2.93;;
3415;SDS011;1721;51.238;9.562;2024-01-16T08:37:49;5.70;;;1.87;;
3415;SDS011;1721;51.238;9.562;2024-01-16T08:40:15;4.95;;;2.55;;
3415;SDS011;1721;51.238;9.562;2024-01-16T08:42:40;7.70;;;2.60;;
3415;SDS011;1721;51.238;9.562;2024-01-16T08:45:06;4.10;;;2.13;;
3415;SDS011;1721;51.238;9.562;2024-01-16T08:47:32;5.47;;;2.07;;
3415;SDS011;1721;51.238;9.562;2024-01-16T08:49:57;10.67;;;2.70;;
3415;SDS011;1721;51.238;9.562;2024-01-16T08:52:23;10.47;;;3.30;;
3415;SDS011;1721;51.238;9.562;2024-01-16T08:54:49;4.20;;;2.90;;
3415;SDS011;1721;51.238;9.562;2024-01-16T08:57:14;5.10;;;2.77;;
3415;SDS011;1721;51.238;9.562;2024-01-16T08:59:40;4.28;;;2.25;;
3415;SDS011;1721;51.238;9.562;2024-01-16T09:02:06;5.00;;;2.27;;
3415;SDS011;1721;51.238;9.562;2024-01-16T09:04:32;7.73;;;3.13;;
3415;SDS011;1721;51.238;9.562;2024-01-16T09:06:59;3.83;;;1.70;;
3415;SDS011;1721;51.238;9.562;2024-01-16T09:09:24;18.30;;;5.90;;
3415;SDS011;1721;51.238;9.562;2024-01-16T09:11:50;4.47;;;2.10;;
3415;SDS011;1721;51.238;9.562;2024-01-16T09:14:15;6.10;;;3.17;;
3415;SDS011;1721;51.238;9.562;2024-01-16T09:16:41;6.53;;;2.60;;
3415;SDS011;1721;51.238;9.562;2024-01-16T09:19:07;4.60;;;3.00;;
3415;SDS011;1721;51.238;9.562;2024-01-16T09:21:34;4.93;;;2.53;;
3415;SDS011;1721;51.238;9.562;2024-01-16T09:24:00;4.10;;;2.53;;
3415;SDS011;1721;51.238;9.562;2024-01-16T09:26:25;7.60;;;2.60;;
3415;SDS011;1721;51.238;9.562;2024-01-16T09:28:51;6.50;;;2.80;;
3415;SDS011;1721;51.238;9.562;2024-01-16T09:31:17;7.40;;;1.70;;
3415;SDS011;1721;51.238;9.562;2024-01-16T09:33:42;5.20;;;1.87;;
3415;SDS011;1721;51.238;9.562;2024-01-16T09:36:08;6.23;;;2.43;;
3415;SDS011;1721;51.238;9.562;2024-01-16T09:38:34;6.33;;;2.23;;
3415;SDS011;1721;51.238;9.562;2024-01-16T09:40:59;10.23;;;3.07;;
3415;SDS011;1721;51.238;9.562;2024-01-16T09:43:28;6.40;;;3.30;;
3415;SDS011;1721;51.238;9.562;2024-01-16T09:45:56;8.65;;;2.28;;
3415;SDS011;1721;51.238;9.562;2024-01-16T09:48:27;4.85;;;2.65;;
3415;SDS011;1721;51.238;9.562;2024-01-16T09:50:54;6.13;;;1.95;;
3415;SDS011;1721;51.238;9.562;2024-01-16T09:53:20;6.17;;;2.23;;
3415;SDS011;1721;51.238;9.562;2024-01-16T09:55:46;22.90;;;4.80;;
3415;SDS011;1721;51.238;9.562;2024-01-16T09:58:14;7.90;;;2.35;;
3415;SDS011;1721;51.238;9.562;2024-01-16T10:00:42;5.38;;;2.72;;
3415;SDS011;1721;51.238;9.562;2024-01-16T10:03:10;9.20;;;2.60;;
3415;SDS011;1721;51.238;9.562;2024-01-16T10:05:37;4.78;;;2.33;;
3415;SDS011;1721;51.238;9.562;2024-01-16T10:08:07;7.88;;;2.05;;
3415;SDS011;1721;51.238;9.562;2024-01-16T10:10:33;5.87;;;2.60;;
3415;SDS011;1721;51.238;9.562;2024-01-16T10:12:59;5.67;;;2.73;;
3415;SDS011;1721;51.238;9.562;2024-01-16T10:15:25;8.55;;;2.70;;
3415;SDS011;1721;51.238;9.562;2024-01-16T10:17:51;4.07;;;2.40;;
3415;SDS011;1721;51.238;9.562;2024-01-16T10:20:18;6.15;;;2.80;;
3415;SDS011;1721;51.238;9.562;2024-01-16T10:23:00;5.25;;;2.45;;
3415;SDS011;1721;51.238;9.562;2024-01-16T10:25:28;10.10;;;2.13;;
3415;SDS011;1721;51.238;9.562;2024-01-16T10:28:03;4.40;;;2.17;;
3415;SDS011;1721;51.238;9.562;2024-01-16T10:30:32;8.18;;;2.60;;
3415;SDS011;1721;51.238;9.562;2024-01-16T10:33:11;4.45;;;2.25;;
3415;SDS011;1721;51.238;9.562;2024-01-16T10:35:38;5.45;;;2.53;;
3415;SDS011;1721;51.238;9.562;2024-01-16T10:38:04;6.37;;;2.50;;
3415;SDS011;1721;51.238;9.562;2024-01-16T10:40:30;7.73;;;3.50;;
3415;SDS011;1721;51.238;9.562;2024-01-16T10:43:00;8.18;;;2.78;;
3415;SDS011;1721;51.238;9.562;2024-01-16T10:45:28;4.45;;;2.22;;
3415;SDS011;1721;51.238;9.562;2024-01-16T10:48:00;5.75;;;3.30;;
3415;SDS011;1721;51.238;9.562;2024-01-16T10:50:27;5.72;;;1.90;;
3415;SDS011;1721;51.238;9.562;2024-01-16T10:52:54;7.30;;;2.80;;
3415;SDS011;1721;51.238;9.562;2024-01-16T10:55:21;5.07;;;2.45;;
3415;SDS011;1721;51.238;9.562;2024-01-16T10:57:48;6.93;;;2.65;;
3415;SDS011;1721;51.238;9.562;2024-01-16T11:00:14;4.72;;;1.88;;
3415;SDS011;1721;51.238;9.562;2024-01-16T11:02:47;5.93;;;2.05;;
3415;SDS011;1721;51.238;9.562;2024-01-16T11:05:17;5.00;;;1.55;;
3415;SDS011;1721;51.238;9.562;2024-01-16T11:07:42;9.30;;;2.35;;
3415;SDS011;1721;51.238;9.562;2024-01-16T11:10:12;5.32;;;1.52;;
3415;SDS011;1721;51.238;9.562;2024-01-16T11:12:38;4.20;;;1.70;;
3415;SDS011;1721;51.238;9.562;2024-01-16T11:15:06;3.70;;;1.77;;
3415;SDS011;1721;51.238;9.562;2024-01-16T11:17:33;4.35;;;1.52;;
3415;SDS011;1721;51.238;9.562;2024-01-16T11:20:03;7.03;;;1.90;;
3415;SDS011;1721;51.238;9.562;2024-01-16T11:22:34;5.30;;;1.77;;
3415;SDS011;1721;51.238;9.562;2024-01-16T11:25:09;4.38;;;2.20;;
3415;SDS011;1721;51.238;9.562;2024-01-16T11:27:41;10.68;;;1.85;;
3415;SDS011;1721;51.238;9.562;2024-01-16T11:30:09;5.00;;;1.45;;
3415;SDS011;1721;51.238;9.562;2024-01-16T11:32:39;4.95;;;2.05;;
3415;SDS011;1721;51.238;9.562;2024-01-16T11:35:09;7.88;;;2.20;;
3415;SDS011;1721;51.238;9.562;2024-01-16T11:37:36;3.83;;;1.70;;
3415;SDS011;1721;51.238;9.562;2024-01-16T11:42:46;3.40;;;2.22;;
3415;SDS011;1721;51.238;9.562;2024-01-16T11:50:49;6.43;;;2.75;;
3415;SDS011;1721;51.238;9.562;2024-01-16T11:53:37;4.37;;;1.90;;
3415;SDS011;1721;51.238;9.562;2024-01-16T12:01:44;4.53;;;2.08;;
3415;SDS011;1721;51.238;9.562;2024-01-16T12:04:11;5.05;;;1.67;;
3415;SDS011;1721;51.238;9.562;2024-01-16T12:06:39;4.55;;;2.08;;
3415;SDS011;1721;51.238;9.562;2024-01-16T12:09:12;8.77;;;3.40;;
3415;SDS011;1721;51.238;9.562;2024-01-16T12:11:38;7.18;;;2.40;;
3415;SDS011;1721;51.238;9.562;2024-01-16T12:14:04;6.05;;;2.03;;
3415;SDS011;1721;51.238;9.562;2024-01-16T12:16:30;7.90;;;2.40;;
3415;SDS011;1721;51.238;9.562;2024-01-16T12:19:08;5.10;;;2.20;;
3415;SDS011;1721;51.238;9.562;2024-01-16T12:21:44;9.02;;;2.25;;
3415;SDS011;1721;51.238;9.562;2024-01-16T12:24:10;3.60;;;1.63;;
3415;SDS011;1721;51.238;9.562;2024-01-16T12:26:37;3.45;;;1.50;;
3415;SDS011;1721;51.238;9.562;2024-01-16T12:29:04;10.35;;;2.85;;
3415;SDS011;1721;51.238;9.562;2024-01-16T12:31:29;5.80;;;2.70;;
3415;SDS011;1721;51.238;9.562;2024-01-16T12:34:05;4.13;;;1.70;;
3415;SDS011;1721;51.238;9.562;2024-01-16T12:36:33;4.88;;;1.88;;
3415;SDS011;1721;51.238;9.562;2024-01-16T12:38:58;6.88;;;1.80;;
3415;SDS011;1721;51.238;9.562;2024-01-16T12:41:24;4.23;;;1.90;;
3415;SDS011;1721;51.238;9.562;2024-01-16T12:43:52;5.75;;;2.08;;
3415;SDS011;1721;51.238;9.562;2024-01-16T12:46:18;5.37;;;2.33;;
3415;SDS011;1721;51.238;9.562;2024-01-16T12:48:44;4.47;;;2.03;;
3415;SDS011;1721;51.238;9.562;2024-01-16T12:51:12;4.28;;;1.67;;
3415;SDS011;1721;51.238;9.562;2024-01-16T12:53:45;3.65;;;1.73;;
3415;SDS011;1721;51.238;9.562;2024-01-16T12:56:10;4.30;;;1.83;;
3415;SDS011;1721;51.238;9.562;2024-01-16T12:58:37;6.50;;;1.73;;
3415;SDS011;1721;51.238;9.562;2024-01-16T13:01:36;12.53;;;2.13;;
3415;SDS011;1721;51.238;9.562;2024-01-16T13:03:56;5.07;;;1.52;;
3415;SDS011;1721;51.238;9.562;2024-01-16T13:06:22;4.60;;;1.80;;
3415;SDS011;1721;51.238;9.562;2024-01-16T13:08:50;3.80;;;1.77;;
3415;SDS011;1721;51.238;9.562;2024-01-16T13:11:28;3.65;;;1.60;;
3415;SDS011;1721;51.238;9.562;2024-01-16T13:14:00;2.50;;;1.17;;
3415;SDS011;1721;51.238;9.562;2024-01-16T13:16:28;6.47;;;1.42;;
3415;SDS011;1721;51.238;9.562;2024-01-16T13:19:00;4.97;;;1.80;;
3415;SDS011;1721;51.238;9.562;2024-01-16T13:21:26;2.08;;;1.00;;
3415;SDS011;1721;51.238;9.562;2024-01-16T13:23:52;7.70;;;2.57;;
3415;SDS011;1721;51.238;9.562;2024-01-16T13:26:17;5.77;;;1.60;;
3415;SDS011;1721;51.238;9.562;2024-01-16T13:28:43;4.03;;;1.17;;
3415;SDS011;1721;51.238;9.562;2024-01-16T13:31:09;2.90;;;1.10;;
3415;SDS011;1721;51.238;9.562;2024-01-16T13:33:34;1.73;;;0.77;;
3415;SDS011;1721;51.238;9.562;2024-01-16T13:36:00;7.13;;;1.60;;
3415;SDS011;1721;51.238;9.562;2024-01-16T13:38:25;4.57;;;1.43;;
3415;SDS011;1721;51.238;9.562;2024-01-16T13:40:51;3.10;;;1.43;;
3415;SDS011;1721;51.238;9.562;2024-01-16T13:43:16;2.90;;;0.93;;
3415;SDS011;1721;51.238;9.562;2024-01-16T13:45:42;2.93;;;1.17;;
3415;SDS011;1721;51.238;9.562;2024-01-16T13:48:08;4.00;;;1.33;;
3415;SDS011;1721;51.238;9.562;2024-01-16T13:50:34;7.20;;;1.73;;
3415;SDS011;1721;51.238;9.562;2024-01-16T13:53:00;2.60;;;1.47;;
3415;SDS011;1721;51.238;9.562;2024-01-16T13:55:29;3.05;;;1.10;;
3415;SDS011;1721;51.238;9.562;2024-01-16T13:57:56;3.00;;;0.95;;
3415;SDS011;1721;51.238;9.562;2024-01-16T14:00:23;6.97;;;1.05;;
3415;SDS011;1721;51.238;9.562;2024-01-16T14:02:48;2.70;;;1.07;;
3415;SDS011;1721;51.238;9.562;2024-01-16T14:05:15;2.47;;;0.87;;
3415;SDS011;1721;51.238;9.562;2024-01-16T14:07:46;8.45;;;1.50;;
3415;SDS011;1721;51.238;9.562;2024-01-16T14:10:15;1.80;;;1.00;;
3415;SDS011;1721;51.238;9.562;2024-01-16T14:12:42;2.88;;;0.88;;
3415;SDS011;1721;51.238;9.562;2024-01-16T14:15:09;1.83;;;0.68;;
3415;SDS011;1721;51.238;9.562;2024-01-16T14:18:02;6.35;;;1.02;;
3415;SDS011;1721;51.238;9.562;2024-01-16T14:20:28;2.85;;;1.05;;
3415;SDS011;1721;51.238;9.562;2024-01-16T14:22:53;5.33;;;1.00;;
3415;SDS011;1721;51.238;9.562;2024-01-16T14:25:20;2.13;;;0.70;;
3415;SDS011;1721;51.238;9.562;2024-01-16T14:27:48;1.80;;;0.68;;
3415;SDS011;1721;51.238;9.562;2024-01-16T14:30:21;2.15;;;0.60;;
3415;SDS011;1721;51.238;9.562;2024-01-16T14:32:47;1.30;;;0.63;;
3415;SDS011;1721;51.238;9.562;2024-01-16T14:35:13;2.50;;;1.07;;
3415;SDS011;1721;51.238;9.562;2024-01-16T14:37:42;1.60;;;0.70;;
3415;SDS011;1721;51.238;9.562;2024-01-16T14:40:07;3.37;;;0.90;;
3415;SDS011;1721;51.238;9.562;2024-01-16T14:42:37;4.90;;;1.40;;
3415;SDS011;1721;51.238;9.562;2024-01-16T14:45:04;3.13;;;0.77;;
3415;SDS011;1721;51.238;9.562;2024-01-16T14:47:30;16.80;;;2.50;;
3415;SDS011;1721;51.238;9.562;2024-01-16T14:49:56;3.30;;;1.57;;
3415;SDS011;1721;51.238;9.562;2024-01-16T14:52:22;2.05;;;1.08;;
3415;SDS011;1721;51.238;9.562;2024-01-16T14:54:48;5.07;;;0.77;;
3415;SDS011;1721;51.238;9.562;2024-01-16T14:57:15;2.10;;;0.85;;
3415;SDS011;1721;51.238;9.562;2024-01-16T14:59:41;7.57;;;1.20;;
3415;SDS011;1721;51.238;9.562;2024-01-16T15:02:06;1.93;;;0.90;;
3415;SDS011;1721;51.238;9.562;2024-01-16T15:04:41;2.88;;;1.23;;
3415;SDS011;1721;51.238;9.562;2024-01-16T15:07:07;1.77;;;0.82;;
3415;SDS011;1721;51.238;9.562;2024-01-16T15:09:34;1.85;;;0.60;;
3415;SDS011;1721;51.238;9.562;2024-01-16T15:12:02;8.30;;;0.70;;
3415;SDS011;1721;51.238;9.562;2024-01-16T15:14:29;1.50;;;0.70;;
3415;SDS011;1721;51.238;9.562;2024-01-16T15:16:55;4.30;;;0.67;;
3415;SDS011;1721;51.238;9.562;2024-01-16T15:19:20;1.37;;;0.50;;
3415;SDS011;1721;51.238;9.562;2024-01-16T15:21:46;2.50;;;1.00;;
3415;SDS011;1721;51.238;9.562;2024-01-16T15:24:13;2.20;;;0.90;;
3415;SDS011;1721;51.238;9.562;2024-01-16T15:26:44;1.58;;;0.70;;